sensor_id;sensor_type;location;lat;lon;timestamp;pressure;altitude;pressure_sealevel;temperature;humidity
55373;BME280;41249;47.838;16.490;2023-04-28T00:02:03;99680.56;;;2.86;54.01
55373;BME280;41249;47.838;16.490;2023-04-28T00:04:30;99695.53;;;2.89;54.23
55373;BME280;41249;47.838;16.490;2023-04-28T00:06:56;99685.81;;;2.91;54.13
55373;BME280;41249;47.838;16.490;2023-04-28T00:09:23;99682.97;;;2.88;53.91
55373;BME280;41249;47.838;16.490;2023-04-28T00:11:49;99682.84;;;2.84;54.70
55373;BME280;41249;47.838;16.490;2023-04-28T00:14:16;99676.53;;;2.84;54.59
55373;BME280;41249;47.838;16.490;2023-04-28T00:16:43;99689.03;;;2.93;54.06
55373;BME280;41249;47.838;16.490;2023-04-28T00:19:09;99687.75;;;2.91;54.94
55373;BME280;41249;47.838;16.490;2023-04-28T00:21:36;99687.25;;;2.76;55.70
55373;BME280;41249;47.838;16.490;2023-04-28T00:24:02;99684.47;;;2.64;56.03
55373;BME280;41249;47.838;16.490;2023-04-28T00:26:29;99679.66;;;2.61;56.48
55373;BME280;41249;47.838;16.490;2023-04-28T00:28:55;99676.25;;;2.64;56.06
55373;BME280;41249;47.838;16.490;2023-04-28T00:31:21;99672.34;;;2.65;56.67
55373;BME280;41249;47.838;16.490;2023-04-28T00:33:48;99670.97;;;2.59;56.67
55373;BME280;41249;47.838;16.490;2023-04-28T00:36:14;99663.47;;;2.68;56.77
55373;BME280;41249;47.838;16.490;2023-04-28T00:38:41;99664.41;;;2.72;56.65
55373;BME280;41249;47.838;16.490;2023-04-28T00:41:10;99666.25;;;2.80;56.58
55373;BME280;41249;47.838;16.490;2023-04-28T00:43:44;99675.81;;;2.95;55.83
55373;BME280;41249;47.838;16.490;2023-04-28T00:46:12;99665.22;;;3.18;54.79
55373;BME280;41249;47.838;16.490;2023-04-28T00:48:43;99666.56;;;3.32;54.09
55373;BME280;41249;47.838;16.490;2023-04-28T00:51:09;99666.34;;;3.37;53.75
55373;BME280;41249;47.838;16.490;2023-04-28T00:53:36;99661.84;;;3.33;53.16
55373;BME280;41249;47.838;16.490;2023-04-28T00:56:02;99661.47;;;3.22;54.79
55373;BME280;41249;47.838;16.490;2023-04-28T00:58:29;99666.59;;;3.12;55.61
55373;BME280;41249;47.838;16.490;2023-04-28T01:01:02;99660.72;;;3.01;56.71
55373;BME280;41249;47.838;16.490;2023-04-28T01:03:29;99653.53;;;2.97;56.62
55373;BME280;41249;47.838;16.490;2023-04-28T01:05:57;99665.81;;;2.91;57.42
55373;BME280;41249;47.838;16.490;2023-04-28T01:08:27;99652.31;;;2.86;57.26
55373;BME280;41249;47.838;16.490;2023-04-28T01:10:53;99654.28;;;2.85;57.30
55373;BME280;41249;47.838;16.490;2023-04-28T01:13:20;99653.94;;;2.87;57.45
55373;BME280;41249;47.838;16.490;2023-04-28T01:15:46;99644.09;;;2.86;57.60
55373;BME280;41249;47.838;16.490;2023-04-28T01:18:13;99644.59;;;2.88;58.02
55373;BME280;41249;47.838;16.490;2023-04-28T01:20:41;99653.13;;;2.86;57.79
55373;BME280;41249;47.838;16.490;2023-04-28T01:23:14;99644.44;;;2.84;58.15
55373;BME280;41249;47.838;16.490;2023-04-28T01:25:41;99651.88;;;2.84;58.15
55373;BME280;41249;47.838;16.490;2023-04-28T01:28:08;99643.66;;;2.84;57.67
55373;BME280;41249;47.838;16.490;2023-04-28T01:30:35;99649.59;;;2.86;57.76
55373;BME280;41249;47.838;16.490;2023-04-28T01:33:02;99646.38;;;2.84;57.89
55373;BME280;41249;47.838;16.490;2023-04-28T01:35:29;99652.75;;;2.75;57.96
55373;BME280;41249;47.838;16.490;2023-04-28T01:37:55;99647.47;;;2.70;58.48
55373;BME280;41249;47.838;16.490;2023-04-28T01:40:22;99650.91;;;2.67;58.37
55373;BME280;41249;47.838;16.490;2023-04-28T01:42:48;99649.50;;;2.61;57.88
55373;BME280;41249;47.838;16.490;2023-04-28T01:45:15;99646.31;;;2.59;58.00
55373;BME280;41249;47.838;16.490;2023-04-28T01:47:41;99646.06;;;2.52;58.67
55373;BME280;41249;47.838;16.490;2023-04-28T01:50:08;99647.84;;;2.48;59.58
55373;BME280;41249;47.838;16.490;2023-04-28T01:52:34;99645.03;;;2.36;59.33
55373;BME280;41249;47.838;16.490;2023-04-28T01:55:01;99652.75;;;2.22;59.86
55373;BME280;41249;47.838;16.490;2023-04-28T01:57:27;99662.81;;;2.09;59.22
55373;BME280;41249;47.838;16.490;2023-04-28T01:59:54;99664.00;;;2.00;58.64
55373;BME280;41249;47.838;16.490;2023-04-28T02:02:21;99648.16;;;2.05;61.38
55373;BME280;41249;47.838;16.490;2023-04-28T02:04:47;99664.28;;;2.07;60.35
55373;BME280;41249;47.838;16.490;2023-04-28T02:07:14;99660.63;;;2.03;63.04
55373;BME280;41249;47.838;16.490;2023-04-28T02:09:40;99661.09;;;2.05;61.42
55373;BME280;41249;47.838;16.490;2023-04-28T02:12:07;99663.66;;;2.01;60.57
55373;BME280;41249;47.838;16.490;2023-04-28T02:14:33;99660.13;;;2.01;61.42
55373;BME280;41249;47.838;16.490;2023-04-28T02:17:00;99656.59;;;2.00;61.97
55373;BME280;41249;47.838;16.490;2023-04-28T02:19:28;99659.81;;;2.02;62.11
55373;BME280;41249;47.838;16.490;2023-04-28T02:21:54;99654.66;;;2.01;64.37
55373;BME280;41249;47.838;16.490;2023-04-28T02:24:21;99662.59;;;1.94;63.69
55373;BME280;41249;47.838;16.490;2023-04-28T02:26:47;99667.88;;;1.99;65.70
55373;BME280;41249;47.838;16.490;2023-04-28T02:29:14;99652.59;;;1.98;62.55
55373;BME280;41249;47.838;16.490;2023-04-28T02:31:40;99652.78;;;1.93;64.37
55373;BME280;41249;47.838;16.490;2023-04-28T02:34:07;99645.44;;;1.85;61.21
55373;BME280;41249;47.838;16.490;2023-04-28T02:36:33;99657.69;;;1.79;62.82
55373;BME280;41249;47.838;16.490;2023-04-28T02:39:00;99658.84;;;1.78;66.67
55373;BME280;41249;47.838;16.490;2023-04-28T02:41:26;99654.47;;;1.77;66.25
55373;BME280;41249;47.838;16.490;2023-04-28T02:43:53;99650.47;;;1.74;65.44
55373;BME280;41249;47.838;16.490;2023-04-28T02:46:20;99647.88;;;1.78;67.67
55373;BME280;41249;47.838;16.490;2023-04-28T02:48:46;99650.13;;;1.76;66.13
55373;BME280;41249;47.838;16.490;2023-04-28T02:51:13;99648.84;;;1.73;65.51
55373;BME280;41249;47.838;16.490;2023-04-28T02:53:39;99640.78;;;1.77;66.06
55373;BME280;41249;47.838;16.490;2023-04-28T02:56:06;99656.94;;;1.70;64.90
55373;BME280;41249;47.838;16.490;2023-04-28T02:58:32;99648.53;;;1.75;65.21
55373;BME280;41249;47.838;16.490;2023-04-28T03:00:59;99644.34;;;1.77;65.36
55373;BME280;41249;47.838;16.490;2023-04-28T03:03:26;99637.41;;;1.80;65.06
55373;BME280;41249;47.838;16.490;2023-04-28T03:05:53;99636.94;;;1.78;66.19
55373;BME280;41249;47.838;16.490;2023-04-28T03:08:22;99637.72;;;1.78;66.15
55373;BME280;41249;47.838;16.490;2023-04-28T03:10:48;99640.34;;;1.75;64.90
55373;BME280;41249;47.838;16.490;2023-04-28T03:13:15;99640.19;;;1.71;63.35
55373;BME280;41249;47.838;16.490;2023-04-28T03:15:41;99633.50;;;1.60;63.89
55373;BME280;41249;47.838;16.490;2023-04-28T03:18:08;99634.81;;;1.54;63.22
55373;BME280;41249;47.838;16.490;2023-04-28T03:20:34;99633.53;;;1.52;62.97
55373;BME280;41249;47.838;16.490;2023-04-28T03:23:01;99637.88;;;1.53;65.31
55373;BME280;41249;47.838;16.490;2023-04-28T03:25:28;99642.47;;;1.61;66.12
55373;BME280;41249;47.838;16.490;2023-04-28T03:27:55;99635.72;;;1.58;64.36
55373;BME280;41249;47.838;16.490;2023-04-28T03:30:21;99624.47;;;1.60;63.97
55373;BME280;41249;47.838;16.490;2023-04-28T03:32:48;99623.84;;;1.54;63.64
55373;BME280;41249;47.838;16.490;2023-04-28T03:35:14;99621.66;;;1.47;63.96
55373;BME280;41249;47.838;16.490;2023-04-28T03:37:41;99621.97;;;1.46;64.35
55373;BME280;41249;47.838;16.490;2023-04-28T03:40:07;99614.75;;;1.41;65.24
55373;BME280;41249;47.838;16.490;2023-04-28T03:42:34;99624.75;;;1.37;65.79
55373;BME280;41249;47.838;16.490;2023-04-28T03:45:00;99616.53;;;1.37;66.26
55373;BME280;41249;47.838;16.490;2023-04-28T03:47:27;99618.13;;;1.38;65.55
55373;BME280;41249;47.838;16.490;2023-04-28T03:49:53;99616.34;;;1.42;64.60
55373;BME280;41249;47.838;16.490;2023-04-28T03:52:20;99618.75;;;1.44;65.46
55373;BME280;41249;47.838;16.490;2023-04-28T03:54:47;99616.47;;;1.46;63.93
55373;BME280;41249;47.838;16.490;2023-04-28T03:57:13;99620.66;;;1.52;64.69
55373;BME280;41249;47.838;16.490;2023-04-28T03:59:39;99620.75;;;1.64;65.73
55373;BME280;41249;47.838;16.490;2023-04-28T04:02:06;99623.13;;;1.66;64.22
55373;BME280;41249;47.838;16.490;2023-04-28T04:04:33;99623.75;;;1.71;64.50
55373;BME280;41249;47.838;16.490;2023-04-28T04:07:00;99627.47;;;1.75;64.66
55373;BME280;41249;47.838;16.490;2023-04-28T04:09:27;99637.41;;;1.80;64.06
55373;BME280;41249;47.838;16.490;2023-04-28T04:11:53;99623.66;;;1.88;64.86
55373;BME280;41249;47.838;16.490;2023-04-28T04:14:20;99624.25;;;1.94;63.52
55373;BME280;41249;47.838;16.490;2023-04-28T04:16:46;99625.47;;;2.05;64.85
55373;BME280;41249;47.838;16.490;2023-04-28T04:19:15;99617.06;;;2.10;63.68
55373;BME280;41249;47.838;16.490;2023-04-28T04:21:41;99615.25;;;2.14;64.09
55373;BME280;41249;47.838;16.490;2023-04-28T04:24:08;99603.63;;;2.17;62.53
55373;BME280;41249;47.838;16.490;2023-04-28T04:26:34;99611.66;;;2.22;62.57
55373;BME280;41249;47.838;16.490;2023-04-28T04:29:01;99613.94;;;2.20;63.52
55373;BME280;41249;47.838;16.490;2023-04-28T04:31:27;99609.13;;;2.17;63.01
55373;BME280;41249;47.838;16.490;2023-04-28T04:33:54;99604.56;;;2.21;64.45
55373;BME280;41249;47.838;16.490;2023-04-28T04:36:20;99608.31;;;2.37;63.61
55373;BME280;41249;47.838;16.490;2023-04-28T04:38:47;99621.91;;;2.46;63.14
55373;BME280;41249;47.838;16.490;2023-04-28T04:41:13;99615.09;;;2.52;63.17
55373;BME280;41249;47.838;16.490;2023-04-28T04:43:40;99621.19;;;2.57;63.00
55373;BME280;41249;47.838;16.490;2023-04-28T04:46:06;99617.53;;;2.65;61.70
55373;BME280;41249;47.838;16.490;2023-04-28T04:48:33;99626.50;;;2.74;62.15
55373;BME280;41249;47.838;16.490;2023-04-28T04:50:59;99615.50;;;2.62;63.09
55373;BME280;41249;47.838;16.490;2023-04-28T04:53:26;99609.63;;;2.52;64.28
55373;BME280;41249;47.838;16.490;2023-04-28T04:55:52;99600.13;;;2.49;63.78
55373;BME280;41249;47.838;16.490;2023-04-28T04:58:19;99605.88;;;2.56;64.49
55373;BME280;41249;47.838;16.490;2023-04-28T05:00:46;99604.53;;;2.62;64.67
55373;BME280;41249;47.838;16.490;2023-04-28T05:03:12;99589.13;;;2.70;63.07
55373;BME280;41249;47.838;16.490;2023-04-28T05:05:39;99594.97;;;2.80;63.73
55373;BME280;41249;47.838;16.490;2023-04-28T05:08:06;99596.59;;;2.82;64.15
55373;BME280;41249;47.838;16.490;2023-04-28T05:10:32;99588.38;;;2.94;63.71
55373;BME280;41249;47.838;16.490;2023-04-28T05:12:59;99589.06;;;3.03;64.33
55373;BME280;41249;47.838;16.490;2023-04-28T05:15:25;99596.41;;;3.11;63.46
55373;BME280;41249;47.838;16.490;2023-04-28T05:17:52;99592.31;;;3.17;64.34
55373;BME280;41249;47.838;16.490;2023-04-28T05:20:19;99599.38;;;3.18;63.42
55373;BME280;41249;47.838;16.490;2023-04-28T05:22:45;99592.19;;;3.25;64.27
55373;BME280;41249;47.838;16.490;2023-04-28T05:25:12;99601.38;;;3.29;63.78
55373;BME280;41249;47.838;16.490;2023-04-28T05:27:38;99604.72;;;3.47;63.15
55373;BME280;41249;47.838;16.490;2023-04-28T05:30:06;99599.22;;;3.59;62.90
55373;BME280;41249;47.838;16.490;2023-04-28T05:32:33;99591.19;;;3.78;61.69
55373;BME280;41249;47.838;16.490;2023-04-28T05:35:00;99598.94;;;3.88;61.83
55373;BME280;41249;47.838;16.490;2023-04-28T05:37:27;99599.13;;;4.07;61.62
55373;BME280;41249;47.838;16.490;2023-04-28T05:39:53;99590.31;;;4.14;60.08
55373;BME280;41249;47.838;16.490;2023-04-28T05:42:20;99586.75;;;4.14;61.07
55373;BME280;41249;47.838;16.490;2023-04-28T05:44:46;99586.50;;;4.19;61.13
55373;BME280;41249;47.838;16.490;2023-04-28T05:47:13;99584.22;;;4.21;60.75
55373;BME280;41249;47.838;16.490;2023-04-28T05:49:39;99586.47;;;4.31;60.29
55373;BME280;41249;47.838;16.490;2023-04-28T05:52:06;99587.34;;;4.47;58.53
55373;BME280;41249;47.838;16.490;2023-04-28T05:54:32;99590.72;;;4.56;58.46
55373;BME280;41249;47.838;16.490;2023-04-28T05:56:59;99601.97;;;4.79;58.22
55373;BME280;41249;47.838;16.490;2023-04-28T05:59:27;99597.53;;;4.90;58.46
55373;BME280;41249;47.838;16.490;2023-04-28T06:01:55;99604.75;;;4.94;58.17
55373;BME280;41249;47.838;16.490;2023-04-28T06:04:22;99604.50;;;4.99;57.87
55373;BME280;41249;47.838;16.490;2023-04-28T06:06:49;99608.78;;;5.12;58.15
55373;BME280;41249;47.838;16.490;2023-04-28T06:09:16;99598.31;;;5.18;57.81
55373;BME280;41249;47.838;16.490;2023-04-28T06:11:43;99601.22;;;5.09;58.28
55373;BME280;41249;47.838;16.490;2023-04-28T06:14:09;99607.06;;;5.08;57.96
55373;BME280;41249;47.838;16.490;2023-04-28T06:16:36;99607.84;;;5.08;58.48
55373;BME280;41249;47.838;16.490;2023-04-28T06:19:03;99600.00;;;5.22;58.30
55373;BME280;41249;47.838;16.490;2023-04-28T06:21:29;99607.19;;;5.43;58.35
55373;BME280;41249;47.838;16.490;2023-04-28T06:23:57;99606.75;;;5.41;58.15
55373;BME280;41249;47.838;16.490;2023-04-28T06:26:23;99611.81;;;5.39;58.66
55373;BME280;41249;47.838;16.490;2023-04-28T06:28:50;99607.06;;;5.55;58.18
55373;BME280;41249;47.838;16.490;2023-04-28T06:31:17;99601.94;;;5.69;57.79
55373;BME280;41249;47.838;16.490;2023-04-28T06:33:43;99607.59;;;5.76;57.85
55373;BME280;41249;47.838;16.490;2023-04-28T06:36:10;99604.63;;;5.84;57.58
55373;BME280;41249;47.838;16.490;2023-04-28T06:38:42;99589.97;;;5.96;56.90
55373;BME280;41249;47.838;16.490;2023-04-28T06:41:09;99590.34;;;6.14;57.64
55373;BME280;41249;47.838;16.490;2023-04-28T06:43:36;99588.69;;;6.47;56.96
55373;BME280;41249;47.838;16.490;2023-04-28T06:46:03;99589.72;;;6.58;55.61
55373;BME280;41249;47.838;16.490;2023-04-28T06:48:29;99585.84;;;6.63;55.96
55373;BME280;41249;47.838;16.490;2023-04-28T06:50:56;99577.44;;;6.75;54.86
55373;BME280;41249;47.838;16.490;2023-04-28T06:53:22;99575.91;;;6.78;54.06
55373;BME280;41249;47.838;16.490;2023-04-28T06:55:49;99563.34;;;6.80;54.66
55373;BME280;41249;47.838;16.490;2023-04-28T06:58:15;99565.72;;;6.82;54.89
55373;BME280;41249;47.838;16.490;2023-04-28T07:00:42;99563.56;;;6.91;54.15
55373;BME280;41249;47.838;16.490;2023-04-28T07:03:08;99564.06;;;6.96;54.26
55373;BME280;41249;47.838;16.490;2023-04-28T07:05:35;99563.88;;;7.08;54.33
55373;BME280;41249;47.838;16.490;2023-04-28T07:08:02;99554.88;;;7.38;54.49
55373;BME280;41249;47.838;16.490;2023-04-28T07:10:28;99557.94;;;7.55;53.82
55373;BME280;41249;47.838;16.490;2023-04-28T07:12:55;99551.47;;;7.74;52.97
55373;BME280;41249;47.838;16.490;2023-04-28T07:15:21;99547.44;;;8.20;51.37
55373;BME280;41249;47.838;16.490;2023-04-28T07:17:49;99553.59;;;8.40;51.23
55373;BME280;41249;47.838;16.490;2023-04-28T07:20:15;99546.78;;;8.67;50.35
55373;BME280;41249;47.838;16.490;2023-04-28T07:22:42;99547.16;;;9.02;50.03
55373;BME280;41249;47.838;16.490;2023-04-28T07:25:09;99539.72;;;9.13;49.11
55373;BME280;41249;47.838;16.490;2023-04-28T07:27:35;99545.34;;;9.20;49.50
55373;BME280;41249;47.838;16.490;2023-04-28T07:30:02;99528.09;;;9.41;49.50
55373;BME280;41249;47.838;16.490;2023-04-28T07:32:44;99532.44;;;9.35;48.48
55373;BME280;41249;47.838;16.490;2023-04-28T07:35:10;99522.94;;;9.36;47.73
55373;BME280;41249;47.838;16.490;2023-04-28T07:37:37;99520.88;;;9.30;48.13
55373;BME280;41249;47.838;16.490;2023-04-28T07:40:04;99522.66;;;9.48;48.44
55373;BME280;41249;47.838;16.490;2023-04-28T07:42:30;99526.75;;;9.72;48.45
55373;BME280;41249;47.838;16.490;2023-04-28T07:44:57;99518.78;;;9.67;47.79
55373;BME280;41249;47.838;16.490;2023-04-28T07:47:24;99521.53;;;9.60;47.83
55373;BME280;41249;47.838;16.490;2023-04-28T07:49:50;99533.06;;;9.69;47.78
55373;BME280;41249;47.838;16.490;2023-04-28T07:52:16;99524.41;;;9.81;47.71
55373;BME280;41249;47.838;16.490;2023-04-28T07:54:43;99528.13;;;10.03;47.17
55373;BME280;41249;47.838;16.490;2023-04-28T07:57:09;99528.66;;;10.36;47.15
55373;BME280;41249;47.838;16.490;2023-04-28T07:59:36;99528.78;;;10.58;47.01
55373;BME280;41249;47.838;16.490;2023-04-28T08:02:02;99530.00;;;10.81;46.40
55373;BME280;41249;47.838;16.490;2023-04-28T08:04:29;99531.25;;;11.12;46.58
55373;BME280;41249;47.838;16.490;2023-04-28T08:06:59;99524.91;;;11.22;45.80
55373;BME280;41249;47.838;16.490;2023-04-28T08:09:25;99520.13;;;11.44;45.12
55373;BME280;41249;47.838;16.490;2023-04-28T08:11:52;99520.91;;;11.44;45.19
55373;BME280;41249;47.838;16.490;2023-04-28T08:14:19;99516.56;;;11.61;45.11
55373;BME280;41249;47.838;16.490;2023-04-28T08:16:45;99524.88;;;11.79;44.38
55373;BME280;41249;47.838;16.490;2023-04-28T08:19:12;99514.53;;;11.83;44.49
55373;BME280;41249;47.838;16.490;2023-04-28T08:21:39;99518.44;;;12.10;44.11
55373;BME280;41249;47.838;16.490;2023-04-28T08:24:05;99512.47;;;12.15;43.46
55373;BME280;41249;47.838;16.490;2023-04-28T08:26:33;99504.81;;;12.33;43.28
55373;BME280;41249;47.838;16.490;2023-04-28T08:28:59;99496.44;;;12.36;43.41
55373;BME280;41249;47.838;16.490;2023-04-28T08:31:26;99492.38;;;12.59;42.22
55373;BME280;41249;47.838;16.490;2023-04-28T08:33:52;99495.38;;;12.85;42.13
55373;BME280;41249;47.838;16.490;2023-04-28T08:36:20;99502.19;;;12.84;42.28
55373;BME280;41249;47.838;16.490;2023-04-28T08:38:48;99486.59;;;12.90;41.94
55373;BME280;41249;47.838;16.490;2023-04-28T08:41:15;99492.31;;;12.69;41.80
55373;BME280;41249;47.838;16.490;2023-04-28T08:43:41;99488.00;;;12.61;42.03
55373;BME280;41249;47.838;16.490;2023-04-28T08:46:08;99481.66;;;12.57;40.40
55373;BME280;41249;47.838;16.490;2023-04-28T08:48:39;99483.66;;;12.50;41.57
55373;BME280;41249;47.838;16.490;2023-04-28T08:51:06;99478.09;;;12.50;42.32
55373;BME280;41249;47.838;16.490;2023-04-28T08:53:37;99479.34;;;12.38;42.08
55373;BME280;41249;47.838;16.490;2023-04-28T08:56:23;99476.91;;;12.47;41.98
55373;BME280;41249;47.838;16.490;2023-04-28T08:58:53;99483.22;;;12.58;41.56
55373;BME280;41249;47.838;16.490;2023-04-28T09:01:19;99472.81;;;12.69;40.70
55373;BME280;41249;47.838;16.490;2023-04-28T09:03:46;99480.88;;;13.08;40.12
55373;BME280;41249;47.838;16.490;2023-04-28T09:06:14;99475.47;;;13.35;40.08
55373;BME280;41249;47.838;16.490;2023-04-28T09:08:41;99474.97;;;13.50;39.38
55373;BME280;41249;47.838;16.490;2023-04-28T09:11:08;99469.13;;;13.75;39.28
55373;BME280;41249;47.838;16.490;2023-04-28T09:13:35;99459.91;;;13.82;38.43
55373;BME280;41249;47.838;16.490;2023-04-28T09:16:02;99455.94;;;13.79;39.07
55373;BME280;41249;47.838;16.490;2023-04-28T09:18:29;99455.19;;;13.75;38.79
55373;BME280;41249;47.838;16.490;2023-04-28T09:21:01;99457.69;;;14.00;39.43
55373;BME280;41249;47.838;16.490;2023-04-28T09:23:28;99451.69;;;14.01;37.74
55373;BME280;41249;47.838;16.490;2023-04-28T09:26:04;99443.88;;;13.89;38.66
55373;BME280;41249;47.838;16.490;2023-04-28T09:28:32;99449.38;;;13.96;39.10
55373;BME280;41249;47.838;16.490;2023-04-28T09:30:59;99450.16;;;13.97;38.15
55373;BME280;41249;47.838;16.490;2023-04-28T09:33:25;99448.38;;;14.10;38.16
55373;BME280;41249;47.838;16.490;2023-04-28T09:35:52;99446.69;;;14.19;37.52
55373;BME280;41249;47.838;16.490;2023-04-28T09:38:19;99435.41;;;14.26;37.84
55373;BME280;41249;47.838;16.490;2023-04-28T09:40:54;99433.59;;;14.13;37.76
55373;BME280;41249;47.838;16.490;2023-04-28T09:45:53;99423.97;;;14.48;37.81
55373;BME280;41249;47.838;16.490;2023-04-28T09:48:53;99410.53;;;14.36;37.82
55373;BME280;41249;47.838;16.490;2023-04-28T09:51:19;99413.44;;;14.28;38.22
55373;BME280;41249;47.838;16.490;2023-04-28T09:53:45;99410.91;;;14.41;37.22
55373;BME280;41249;47.838;16.490;2023-04-28T09:56:12;99404.16;;;14.65;38.32
55373;BME280;41249;47.838;16.490;2023-04-28T09:58:39;99397.03;;;14.61;38.06
55373;BME280;41249;47.838;16.490;2023-04-28T10:01:06;99395.88;;;14.58;37.91
55373;BME280;41249;47.838;16.490;2023-04-28T10:03:36;99401.00;;;14.37;38.72
55373;BME280;41249;47.838;16.490;2023-04-28T10:06:04;99396.66;;;14.59;38.00
55373;BME280;41249;47.838;16.490;2023-04-28T10:08:31;99386.44;;;14.99;38.02
55373;BME280;41249;47.838;16.490;2023-04-28T10:10:58;99392.28;;;15.31;37.39
55373;BME280;41249;47.838;16.490;2023-04-28T10:13:24;99378.25;;;15.54;37.10
55373;BME280;41249;47.838;16.490;2023-04-28T10:15:51;99376.16;;;15.78;35.91
55373;BME280;41249;47.838;16.490;2023-04-28T10:18:24;99368.75;;;15.87;36.28
55373;BME280;41249;47.838;16.490;2023-04-28T10:20:57;99367.31;;;15.99;35.99
55373;BME280;41249;47.838;16.490;2023-04-28T10:26:12;99363.50;;;15.30;35.76
55373;BME280;41249;47.838;16.490;2023-04-28T10:28:49;99362.88;;;15.19;36.44
55373;BME280;41249;47.838;16.490;2023-04-28T10:31:19;99357.91;;;15.30;36.85
55373;BME280;41249;47.838;16.490;2023-04-28T10:33:47;99354.47;;;15.23;37.00
55373;BME280;41249;47.838;16.490;2023-04-28T10:36:48;99358.78;;;15.04;36.49
55373;BME280;41249;47.838;16.490;2023-04-28T10:39:07;99358.03;;;14.77;36.30
55373;BME280;41249;47.838;16.490;2023-04-28T10:41:35;99353.72;;;14.72;36.14
55373;BME280;41249;47.838;16.490;2023-04-28T10:44:38;99346.13;;;14.73;36.52
55373;BME280;41249;47.838;16.490;2023-04-28T10:47:07;99346.50;;;14.98;36.55
55373;BME280;41249;47.838;16.490;2023-04-28T10:57:54;99327.59;;;14.82;36.49
55373;BME280;41249;47.838;16.490;2023-04-28T11:00:34;99327.38;;;14.73;36.70
55373;BME280;41249;47.838;16.490;2023-04-28T11:03:00;99322.72;;;14.67;36.39
55373;BME280;41249;47.838;16.490;2023-04-28T11:05:27;99318.09;;;14.57;37.73
55373;BME280;41249;47.838;16.490;2023-04-28T11:13:28;99313.09;;;14.91;36.99
55373;BME280;41249;47.838;16.490;2023-04-28T11:16:02;99312.13;;;14.78;38.01
55373;BME280;41249;47.838;16.490;2023-04-28T11:18:33;99305.50;;;14.68;36.79
55373;BME280;41249;47.838;16.490;2023-04-28T11:21:03;99308.34;;;14.42;38.10
55373;BME280;41249;47.838;16.490;2023-04-28T11:23:30;99313.75;;;14.25;38.25
55373;BME280;41249;47.838;16.490;2023-04-28T11:25:56;99306.59;;;13.98;38.75
55373;BME280;41249;47.838;16.490;2023-04-28T11:28:23;99300.06;;;13.51;39.68
55373;BME280;41249;47.838;16.490;2023-04-28T11:30:49;99303.31;;;13.09;40.42
55373;BME280;41249;47.838;16.490;2023-04-28T11:33:19;99298.44;;;12.82;40.82
55373;BME280;41249;47.838;16.490;2023-04-28T11:35:46;99307.72;;;12.65;41.05
55373;BME280;41249;47.838;16.490;2023-04-28T11:38:13;99290.69;;;12.56;41.74
55373;BME280;41249;47.838;16.490;2023-04-28T11:40:39;99299.53;;;12.44;41.67
55373;BME280;41249;47.838;16.490;2023-04-28T11:43:28;99295.53;;;12.52;41.13
55373;BME280;41249;47.838;16.490;2023-04-28T11:46:21;99282.72;;;12.58;40.03
55373;BME280;41249;47.838;16.490;2023-04-28T11:48:48;99275.44;;;12.71;41.16
55373;BME280;41249;47.838;16.490;2023-04-28T11:51:42;99272.94;;;12.80;41.27
55373;BME280;41249;47.838;16.490;2023-04-28T11:54:11;99282.00;;;12.91;41.09
55373;BME280;41249;47.838;16.490;2023-04-28T11:56:40;99284.50;;;12.82;40.69
55373;BME280;41249;47.838;16.490;2023-04-28T11:59:08;99282.84;;;12.85;41.19
55373;BME280;41249;47.838;16.490;2023-04-28T12:01:43;99281.00;;;12.75;41.42
55373;BME280;41249;47.838;16.490;2023-04-28T12:04:10;99281.31;;;12.80;40.91
55373;BME280;41249;47.838;16.490;2023-04-28T12:06:38;99282.75;;;12.95;41.26
55373;BME280;41249;47.838;16.490;2023-04-28T12:09:17;99279.28;;;12.84;41.50
55373;BME280;41249;47.838;16.490;2023-04-28T12:11:56;99280.13;;;12.81;41.82
55373;BME280;41249;47.838;16.490;2023-04-28T12:14:23;99278.53;;;12.80;40.85
55373;BME280;41249;47.838;16.490;2023-04-28T12:16:50;99271.25;;;12.90;41.44
55373;BME280;41249;47.838;16.490;2023-04-28T12:19:17;99285.34;;;13.13;41.62
55373;BME280;41249;47.838;16.490;2023-04-28T12:25:02;99273.44;;;13.43;39.50
55373;BME280;41249;47.838;16.490;2023-04-28T12:27:29;99276.25;;;13.73;40.79
55373;BME280;41249;47.838;16.490;2023-04-28T12:29:57;99276.69;;;13.98;39.55
55373;BME280;41249;47.838;16.490;2023-04-28T12:32:40;99277.94;;;14.20;39.77
55373;BME280;41249;47.838;16.490;2023-04-28T12:35:07;99277.53;;;14.22;39.93
55373;BME280;41249;47.838;16.490;2023-04-28T12:37:33;99289.84;;;13.71;39.75
55373;BME280;41249;47.838;16.490;2023-04-28T12:40:00;99289.72;;;13.48;40.18
55373;BME280;41249;47.838;16.490;2023-04-28T12:42:27;99287.91;;;13.31;40.72
55373;BME280;41249;47.838;16.490;2023-04-28T12:44:54;99293.25;;;13.18;40.70
55373;BME280;41249;47.838;16.490;2023-04-28T12:47:20;99290.25;;;13.02;41.29
55373;BME280;41249;47.838;16.490;2023-04-28T12:49:48;99288.41;;;12.88;41.40
55373;BME280;41249;47.838;16.490;2023-04-28T12:52:18;99280.59;;;12.73;41.42
55373;BME280;41249;47.838;16.490;2023-04-28T12:54:45;99279.50;;;12.63;41.12
55373;BME280;41249;47.838;16.490;2023-04-28T12:57:15;99270.47;;;12.52;42.73
55373;BME280;41249;47.838;16.490;2023-04-28T12:59:42;99273.25;;;12.45;41.49
55373;BME280;41249;47.838;16.490;2023-04-28T13:02:09;99269.34;;;12.35;42.97
55373;BME280;41249;47.838;16.490;2023-04-28T13:04:36;99268.63;;;12.28;42.91
55373;BME280;41249;47.838;16.490;2023-04-28T13:07:03;99270.28;;;12.22;43.46
55373;BME280;41249;47.838;16.490;2023-04-28T13:09:29;99262.75;;;12.19;42.07
55373;BME280;41249;47.838;16.490;2023-04-28T13:11:56;99266.19;;;12.33;42.46
55373;BME280;41249;47.838;16.490;2023-04-28T13:14:22;99257.47;;;12.35;42.83
55373;BME280;41249;47.838;16.490;2023-04-28T13:16:49;99254.16;;;12.47;42.84
55373;BME280;41249;47.838;16.490;2023-04-28T13:19:16;99253.38;;;12.47;42.70
55373;BME280;41249;47.838;16.490;2023-04-28T13:21:44;99255.69;;;12.55;42.49